Strona główna
METAR-TAF:

METAR-TAF

Lotnisko :

Port lotniczy Szawle

Szawle, Litwa

Szerokość geograficzna: 55-53-38N, Długość geograficzna: 023-23-42E, wysokość: 135 m

Aktualna obserwacja pogody

Raport powstał 22 minut temu, godzina 17:50 UTC
Wiatr 5 kt od południowo-południowy zachód
Temperatura 17°C
Wilgotność 68%
Ciśnienie 1017 hPa
Widzialność 10 km lub więcej
Brak chmur poniżej 1500 m i brak chmur cumulonimbus

METAR: EYSA 181750Z 20005KT CAVOK 17/11 Q1017 BLU NOSIG

czas: 21:12 (18:12 UTC)

Prognoza

Raport powstał 1 godzina i 12 minut temu, godzina 17:00 UTC
Prognoza ważna od 18 godzina 18 UTC do 19 godzina 03 UTC
Wiatr 6 kt od południowy zachód
Widzialność: 9000 m
Stopniowe zmiany
od 19 godzina 00 UTC do 19 godzina 01 UTC
Widzialność: 3000 m
Rozproszone chmury na wysokości 500 ft
Płytka mgła, zamglenie

TAF: EYSA 181700Z 1818/1903 22006KT 9000 NSC BECMG 1900/1901 3000 MIFG BR SCT005

Obserwacja i prognoza pogody dla ponad 4000 lotnisk (raport METAR i TAF).

Dostępne stacje oznaczono żółtymi i czerwonymi punktami na mapie.

Najedź kursorem aby zobaczyć nazwę stacji.

Kliknij aby zobaczyć obserwacje i prognozy pogody.

Aby zmienić mapę: kliknij na zielony przycisk z czarnym krzyżykiem, aby powiększyć; na zielony przycisk z myślnikiem, aby pomniejszyć; na zielone strzałki, aby przejść do map sąsiednich.


METAR-TAF: